Latest Weather Observations for Swanbourne

IDW60801

Issued at 8:43 am WST Tuesday 14 July 2020 (issued every 10 minutes, with the page automatically refreshed every 10 minutes)

About weather observations | Map of weather stations | Latest weather observations for WA | Other Formats
Station Details ID: 009215 Name: SWANBOURNE Lat: -31.96 Lon: 115.76 Height: 40.96 m
Data from the previous 72 hours. | See also: Recent months at Swanbourne
Date/Time
WST
Temp
°C
App
Temp
°C
Dew
Point
°C
Rel
Hum
%
Delta-T
°C
Wind Press
QNH
hPa
Press
MSL
hPa
Rain since
9am
mm
Dir  Spd
km/h
Gust
km/h
Spd
kts
Gust
kts
14/08:30am 14.4 8.5 7.7 64 3.3 WSW 28 41 15 22 - - 23.0
14/08:02am 14.4 8.3 8.4 67 3.0 W 30 52 16 28 - - 23.0
14/08:00am 14.4 8.8 8.6 68 2.9 W 28 43 15 23 - - 23.0
14/07:33am 13.9 6.5 8.3 69 2.8 WSW 37 59 20 32 - - 23.0
14/07:30am 13.8 6.9 8.8 72 2.5 WSW 35 54 19 29 - - 23.0
14/07:11am 14.2 6.6 9.0 71 2.6 WSW 39 61 21 33 - - 23.0
14/07:00am 14.1 7.3 9.1 72 2.5 W 35 52 19 28 - - 23.0
14/06:42am 14.4 7.2 9.2 71 2.7 W 37 57 20 31 - - 22.6
14/06:30am 14.5 7.7 9.3 71 2.7 WSW 35 54 19 29 - - 22.6
14/06:00am 15.2 5.3 6.5 56 4.2 W 48 69 26 37 - - 22.6
14/05:43am 15.5 6.9 8.3 62 3.6 W 43 63 23 34 - - 22.6
14/05:30am 15.3 6.2 8.3 63 3.5 W 46 63 25 34 - - 22.6
14/05:00am 15.5 7.3 9.8 69 3.0 W 43 61 23 33 - - 22.6
14/04:30am 14.8 8.0 11.8 82 1.6 W 39 57 21 31 - - 22.6
14/04:00am 13.6 7.8 12.8 95 0.4 W 35 56 19 30 - - 21.8
14/03:30am 14.3 6.7 12.3 88 1.1 WNW 44 65 24 35 - - 21.0
14/03:21am 14.1 7.3 11.8 86 1.2 WNW 39 65 21 35 - - 20.6
14/03:00am 14.6 8.6 13.3 92 0.7 WNW 37 52 20 28 - - 20.4
14/02:30am 14.9 9.7 12.9 88 1.1 W 32 50 17 27 - - 20.0
14/02:29am 15.0 9.9 13.0 88 1.1 W 32 50 17 27 - - 20.0
14/02:00am 15.9 9.6 13.6 86 1.3 W 39 56 21 30 - - 20.0
14/01:46am 16.6 9.4 13.7 83 1.6 W 44 70 24 38 - - 20.0
14/01:39am 17.8 10.2 13.5 76 2.4 NW 46 70 25 38 - - 20.0
14/01:30am 18.3 11.7 13.8 75 2.6 NW 41 61 22 33 - - 20.0
14/01:00am 17.5 9.6 13.8 79 2.1 NW 48 76 26 41 - - 20.0
14/12:30am 18.1 13.4 14.8 81 1.9 NNW 33 57 18 31 - - 16.6
14/12:09am 18.4 12.6 14.9 80 2.0 NNW 39 61 21 33 - - 16.6
14/12:00am 18.3 13.0 15.2 82 1.8 NW 37 56 20 30 - - 16.6
 
Date/Time
WST
Temp
°C
App
Temp
°C
Dew
Point
°C
Rel
Hum
%
Delta-T
°C
Wind Press
QNH
hPa
Press
MSL
hPa
Rain since
9am
mm
Dir  Spd
km/h
Gust
km/h
Spd
kts
Gust
kts
13/11:42pm 17.6 12.3 15.4 87 1.3 NNW 37 56 20 30 - - 16.6
13/11:30pm 16.9 13.1 15.8 93 0.6 NNW 30 44 16 24 - - 16.6
13/11:02pm 16.9 11.7 15.6 92 0.8 NNW 37 56 20 30 - - 15.8
13/11:00pm 16.8 11.1 15.3 91 0.9 NNW 39 56 21 30 - - 15.8
13/10:30pm 16.9 11.8 15.8 93 0.6 NW 37 56 20 30 - - 15.4
13/10:11pm 16.4 12.9 15.6 95 0.5 NNW 28 57 15 31 - - 14.4
13/10:00pm 16.8 15.1 16.3 97 0.3 N 20 32 11 17 - - 14.2
13/09:30pm 16.6 15.4 16.1 97 0.3 NNE 17 26 9 14 - - 13.0
13/09:00pm 16.4 16.3 16.1 98 0.2 N 11 19 6 10 - - 12.2
13/08:30pm 16.5 16.1 16.2 98 0.2 N 13 28 7 15 - - 12.0
13/08:00pm 16.6 15.8 16.1 97 0.3 N 15 30 8 16 - - 12.0
13/07:30pm 16.8 15.3 16.3 97 0.3 NNW 19 28 10 15 - - 10.8
13/07:00pm 16.7 15.2 16.2 97 0.3 NNW 19 33 10 18 - - 8.4
13/06:30pm 16.5 15.5 15.7 95 0.5 NNW 15 26 8 14 - - 6.4
13/06:03pm 16.6 13.1 15.5 93 0.6 NNW 28 50 15 27 - - 6.2
13/06:00pm 17.0 14.2 15.3 90 1.0 NNW 24 50 13 27 - - 5.6
13/05:30pm 17.0 15.6 15.5 91 0.9 NNW 17 22 9 12 - - 5.2
13/05:00pm 16.8 14.2 15.0 89 1.0 NW 22 35 12 19 - - 5.2
13/04:30pm 18.4 15.6 14.3 77 2.4 NNW 22 30 12 16 - - 5.0
13/04:00pm 18.5 16.1 14.4 77 2.4 NNW 20 33 11 18 - - 5.0
13/03:30pm 18.5 15.0 14.6 78 2.3 NNW 26 35 14 19 - - 5.0
13/03:00pm 16.7 13.7 14.7 88 1.2 NW 24 35 13 19 - - 5.0
13/02:30pm 18.5 15.4 14.6 78 2.3 NW 24 35 13 19 - - 4.6
13/02:00pm 18.5 15.3 15.2 81 1.9 NW 26 37 14 20 - - 4.6
13/01:30pm 17.7 13.0 14.4 81 1.9 NW 32 54 17 29 - - 4.6
13/01:29pm 18.2 13.6 14.5 79 2.1 NW 32 54 17 29 - - 4.6
13/01:26pm 18.8 15.1 14.9 78 2.3 NW 28 44 15 24 - - 4.6
13/01:00pm 18.7 17.1 15.9 84 1.7 NW 19 26 10 14 - - 4.6
13/12:30pm 17.7 13.9 14.8 83 1.7 NW 28 41 15 22 - - 4.6
13/12:00pm 17.8 15.2 14.9 83 1.7 NW 22 32 12 17 - - 4.6
13/11:30am 17.4 14.9 15.2 87 1.3 NW 22 32 12 17 - - 4.6
13/11:00am 16.5 16.4 16.0 97 0.3 NNW 11 20 6 11 - - 4.6
13/10:30am 15.9 15.2 15.3 96 0.3 N 13 20 7 11 - - 3.4
13/10:00am 15.1 14.5 14.6 97 0.3 N 11 17 6 9 - - 3.0
13/09:30am 15.1 14.8 14.3 95 0.5 NNE 9 15 5 8 - - 0.8
13/09:00am 14.9 14.1 14.1 95 0.5 NNE 11 17 6 9 - - 1.4
13/08:30am 14.1 13.4 13.3 95 0.4 NNE 9 15 5 8 - - 1.4
13/08:00am 13.7 12.5 12.9 95 0.4 NNE 11 17 6 9 - - 1.4
13/07:30am 14.3 13.6 13.3 94 0.6 NNE 9 15 5 8 - - 1.4
13/07:00am 14.3 13.6 13.3 94 0.6 NNE 9 17 5 9 - - 1.4
13/06:30am 14.1 13.4 13.1 94 0.6 NNE 9 13 5 7 - - 1.4
13/06:00am 14.3 13.2 13.2 93 0.6 N 11 17 6 9 - - 1.4
13/05:30am 14.3 14.0 12.7 90 0.9 NNE 6 9 3 5 - - 1.4
13/05:00am 14.9 14.6 12.6 86 1.3 ENE 6 9 3 5 - - 1.4
13/04:30am 17.3 15.2 13.6 79 2.1 NNW 17 22 9 12 - - 1.2
13/04:00am 17.4 14.8 13.1 76 2.4 NNW 19 30 10 16 - - 1.2
13/03:30am 17.1 15.0 13.6 80 2.0 NW 17 26 9 14 - - 1.2
13/03:00am 17.2 15.1 13.5 79 2.1 NW 17 24 9 13 - - 1.2
13/02:30am 16.9 15.3 13.8 82 1.8 NNW 15 22 8 12 - - 1.2
13/02:00am 16.8 15.1 14.6 87 1.3 NNW 17 22 9 12 - - 1.2
13/01:30am 16.4 15.4 14.6 89 1.0 NW 13 19 7 10 - - 1.2
13/01:00am 16.2 13.9 14.2 88 1.1 W 19 26 10 14 - - 1.2
13/12:30am 17.1 14.2 14.0 82 1.8 WNW 22 33 12 18 - - 1.2
13/12:00am 17.3 16.3 15.5 89 1.1 NW 15 22 8 12 - - 1.2
 
Date/Time
WST
Temp
°C
App
Temp
°C
Dew
Point
°C
Rel
Hum
%
Delta-T
°C
Wind Press
QNH
hPa
Press
MSL
hPa
Rain since
9am
mm
Dir  Spd
km/h
Gust
km/h
Spd
kts
Gust
kts
12/11:30pm 17.2 15.6 15.0 87 1.3 WNW 17 24 9 13 - - 1.0
12/11:00pm 16.9 13.6 14.9 88 1.2 W 26 37 14 20 - - 1.0
12/10:30pm 17.1 14.4 15.6 91 0.9 W 24 43 13 23 - - 1.0
12/10:00pm 17.5 12.7 7.3 51 5.1 N 22 32 12 17 - - 0.0
12/09:30pm 17.5 12.9 5.4 45 5.9 N 19 28 10 15 - - 0.0
12/09:00pm 17.9 13.2 5.2 43 6.1 N 19 30 10 16 - - 0.0
12/08:30pm 17.3 13.8 7.1 51 5.1 N 15 20 8 11 - - 0.0
12/08:00pm 17.8 14.9 8.1 53 5.0 NNW 13 19 7 10 - - 0.0
12/07:30pm 18.5 14.2 1.1 31 7.8 N 13 22 7 12 - - 0.0
12/07:00pm 18.9 14.3 1.4 31 7.9 N 15 26 8 14 - - 0.0
12/06:30pm 18.9 14.5 2.7 34 7.5 N 15 24 8 13 - - 0.0
12/06:00pm 19.3 15.0 3.5 35 7.5 NNE 15 26 8 14 - - 0.0
12/05:30pm 19.0 14.7 7.1 46 6.0 N 19 30 10 16 - - 0.0
12/05:00pm 19.2 15.6 9.9 55 5.0 N 19 28 10 15 - - 0.0
12/04:30pm 19.3 16.1 10.0 55 5.0 N 17 24 9 13 - - 0.0
12/04:00pm 20.3 16.4 7.3 43 6.7 N 17 24 9 13 - - 0.0
12/03:30pm 20.5 17.5 9.4 49 5.9 NNW 15 24 8 13 - - 0.0
12/03:00pm 21.0 17.1 6.9 40 7.2 NNW 17 26 9 14 - - 0.0
12/02:30pm 21.1 16.0 2.9 30 8.6 N 19 28 10 15 - - 0.0
12/02:00pm 21.7 17.4 0.8 25 9.5 N 13 32 7 17 - - 0.0
12/01:30pm 21.0 16.8 1.8 28 8.9 NNE 13 24 7 13 - - 0.0
12/01:00pm 20.1 15.2 2.0 30 8.3 NNE 17 28 9 15 - - 0.0
12/12:30pm 19.8 15.3 2.2 31 8.1 NNE 15 28 8 15 - - 0.0
12/12:00pm 18.7 13.3 1.2 31 7.8 NNE 19 30 10 16 - - 0.0
12/11:30am 18.4 13.0 1.4 32 7.6 NNE 19 32 10 17 - - 0.0
12/11:00am 17.8 12.6 2.2 35 7.1 NE 19 37 10 20 - - 0.0
12/10:30am 16.4 10.4 0.9 35 6.8 NE 22 37 12 20 - - 0.0
12/10:00am 15.3 9.6 0.7 37 6.3 NE 20 30 11 16 - - 0.0
12/09:30am 13.9 7.9 1.2 42 5.5 NE 22 37 12 20 - - 0.0
12/09:04am 12.7 5.1 0.8 44 5.0 NE 30 50 16 27 - - 0.0
12/09:00am 12.7 5.1 0.8 44 5.0 NE 30 48 16 26 - - 0.0
12/08:30am 11.4 4.6 0.8 48 4.4 ENE 26 41 14 22 - - 0.0
12/08:00am 10.1 4.1 1.2 54 3.7 ENE 22 41 12 22 - - 0.0
12/07:30am 8.7 3.3 1.4 60 3.0 ENE 19 28 10 15 - - 0.0
12/07:00am 8.4 3.5 1.8 63 2.7 ENE 17 26 9 14 - - 0.0
12/06:30am 8.3 4.5 1.7 63 2.7 ENE 11 17 6 9 - - 0.0
12/06:00am 8.4 4.6 1.8 63 2.7 ENE 11 17 6 9 - - 0.0
12/05:30am 8.9 5.5 2.0 62 2.9 ENE 9 15 5 8 - - 0.0
12/05:00am 9.4 6.4 1.8 59 3.2 NE 7 13 4 7 - - 0.0
12/04:30am 9.9 5.8 2.0 58 3.3 ENE 13 20 7 11 - - 0.0
12/04:00am 10.5 7.1 2.1 56 3.6 NE 9 17 5 9 - - 0.0
12/03:30am 10.9 6.0 2.2 55 3.7 ENE 17 30 9 16 - - 0.0
12/03:00am 11.1 5.3 2.4 55 3.7 ENE 22 33 12 18 - - 0.0
12/02:30am 10.7 5.0 2.8 58 3.4 ENE 22 32 12 17 - - 0.0
12/02:00am 10.4 5.1 3.0 60 3.2 ENE 20 30 11 16 - - 0.0
12/01:30am 10.0 4.8 3.3 63 2.9 ENE 20 28 11 15 - - 0.0
12/01:00am 10.2 5.2 3.5 63 2.9 ENE 19 24 10 13 - - 0.0
12/12:30am 10.1 5.5 3.6 64 2.8 E 17 24 9 13 - - 0.0
12/12:00am 9.6 6.1 3.6 66 2.6 E 11 17 6 9 - - 0.0
 
Date/Time
WST
Temp
°C
App
Temp
°C
Dew
Point
°C
Rel
Hum
%
Delta-T
°C
Wind Press
QNH
hPa
Press
MSL
hPa
Rain since
9am
mm
Dir  Spd
km/h
Gust
km/h
Spd
kts
Gust
kts
11/11:30pm 10.3 6.9 3.8 64 2.9 E 11 15 6 8 - - 0.0
11/11:00pm 10.6 6.0 3.9 63 3.0 E 17 22 9 12 - - 0.0
11/10:30pm 10.8 6.6 4.0 63 3.0 E 15 20 8 11 - - 0.0
11/10:00pm 11.4 6.5 4.2 61 3.2 E 19 26 10 14 - - 0.0
11/09:30pm 11.8 6.9 4.3 60 3.4 E 19 28 10 15 - - 0.0
11/09:00pm 11.9 6.9 4.4 60 3.4 E 20 28 11 15 - - 0.0
11/08:30pm 12.1 7.7 4.6 60 3.4 E 17 28 9 15 - - 0.0
11/08:00pm 12.6 7.6 4.8 59 3.6 E 20 30 11 16 - - 0.0
11/07:30pm 12.5 8.2 5.2 61 3.4 E 17 24 9 13 - - 0.0
11/07:00pm 12.7 9.5 5.1 60 3.5 ENE 11 17 6 9 - - 0.0
11/06:30pm 13.4 10.6 5.1 57 3.9 E 9 13 5 7 - - 0.0
11/06:00pm 13.9 11.1 5.3 56 4.0 E 9 13 5 7 - - 0.0
11/05:30pm 14.7 12.0 5.5 54 4.4 E 9 15 5 8 - - 0.0
11/05:00pm 15.6 12.9 5.5 51 4.8 E 9 15 5 8 - - 0.0
11/04:30pm 16.4 13.7 5.4 48 5.3 E 9 15 5 8 - - 0.0
11/04:00pm 16.7 13.0 4.7 45 5.7 E 13 19 7 10 - - 0.0
11/03:30pm 17.1 13.8 4.4 43 6.0 ENE 11 19 6 10 - - 0.0
11/03:00pm 17.2 14.3 4.9 44 5.9 ENE 9 19 5 10 - - 0.0
11/02:30pm 16.9 13.6 4.6 44 5.8 ENE 11 20 6 11 - - 0.0
11/02:00pm 17.2 14.9 5.5 46 5.7 ENE 7 13 4 7 - - 0.0
11/01:30pm 16.5 12.8 4.5 45 5.7 ENE 13 24 7 13 - - 0.0
11/01:00pm 16.1 12.8 4.8 47 5.3 NE 11 22 6 12 - - 0.0
11/12:30pm 15.7 12.0 4.4 47 5.3 NE 13 24 7 13 - - 0.0
11/12:00pm 15.2 10.8 4.6 49 5.0 ENE 17 28 9 15 - - 0.0
11/11:30am 14.4 10.3 4.4 51 4.6 NE 15 26 8 14 - - 0.0
11/11:00am 14.2 9.4 4.8 53 4.4 NE 19 33 10 18 - - 0.0
11/10:30am 13.1 8.3 4.5 56 3.9 NE 19 30 10 16 - - 0.0
11/10:00am 12.4 8.7 4.6 59 3.6 ENE 13 20 7 11 - - 0.0
11/09:30am 11.0 6.9 4.5 64 2.9 ENE 15 22 8 12 - - 0.0
11/09:00am 10.2 7.7 4.6 68 2.5 E 7 15 4 8 - - 0.0

Other formats

Comma delimited format used in spreadsheet applications
http://www.bom.gov.au/fwo/IDW60801/IDW60801.94614.axf

JavaScript Object Notation format (JSON) in row-major order
http://www.bom.gov.au/fwo/IDW60801/IDW60801.94614.json

Data quality

Most of these data are generated automatically and are frequently updated. Quality checks on data are not normally performed. It is possible for incorrect values to appear. Refer to information at About Latest Weather Observations and please check the disclaimer before using these data.